sensor_id;sensor_type;location;lat;lon;timestamp;temperature;humidity
24226;DHT22;51462;51.422;5.514;2022-12-07T00:01:40;5.20;99.90
24226;DHT22;51462;51.422;5.514;2022-12-07T00:04:07;5.20;99.90
24226;DHT22;51462;51.422;5.514;2022-12-07T00:06:38;5.10;99.90
24226;DHT22;51462;51.422;5.514;2022-12-07T00:09:05;5.00;99.90
24226;DHT22;51462;51.422;5.514;2022-12-07T00:11:31;5.00;99.90
24226;DHT22;51462;51.422;5.514;2022-12-07T00:13:59;4.90;99.90
24226;DHT22;51462;51.422;5.514;2022-12-07T00:16:28;5.00;99.90
24226;DHT22;51462;51.422;5.514;2022-12-07T00:18:54;5.00;99.90
24226;DHT22;51462;51.422;5.514;2022-12-07T00:21:22;4.90;99.90
24226;DHT22;51462;51.422;5.514;2022-12-07T00:23:49;4.90;99.90
24226;DHT22;51462;51.422;5.514;2022-12-07T00:26:18;4.80;99.90
24226;DHT22;51462;51.422;5.514;2022-12-07T00:28:57;4.90;99.90
24226;DHT22;51462;51.422;5.514;2022-12-07T00:31:28;4.80;99.90
24226;DHT22;51462;51.422;5.514;2022-12-07T00:33:55;4.80;99.90
24226;DHT22;51462;51.422;5.514;2022-12-07T00:36:22;4.80;99.90
24226;DHT22;51462;51.422;5.514;2022-12-07T00:38:49;4.70;99.90
24226;DHT22;51462;51.422;5.514;2022-12-07T00:41:20;4.60;99.90
24226;DHT22;51462;51.422;5.514;2022-12-07T00:43:47;4.70;99.90
24226;DHT22;51462;51.422;5.514;2022-12-07T00:46:13;4.70;99.90
24226;DHT22;51462;51.422;5.514;2022-12-07T00:48:39;4.60;99.90
24226;DHT22;51462;51.422;5.514;2022-12-07T00:51:06;4.70;99.90
24226;DHT22;51462;51.422;5.514;2022-12-07T00:53:34;4.60;99.90
24226;DHT22;51462;51.422;5.514;2022-12-07T00:56:08;4.50;99.90
24226;DHT22;51462;51.422;5.514;2022-12-07T00:58:34;4.50;99.90
24226;DHT22;51462;51.422;5.514;2022-12-07T01:01:01;4.50;99.90
24226;DHT22;51462;51.422;5.514;2022-12-07T01:03:30;4.50;99.90
24226;DHT22;51462;51.422;5.514;2022-12-07T01:05:56;4.40;99.90
24226;DHT22;51462;51.422;5.514;2022-12-07T01:08:23;4.40;99.90
24226;DHT22;51462;51.422;5.514;2022-12-07T01:10:49;4.40;99.90
24226;DHT22;51462;51.422;5.514;2022-12-07T01:13:15;4.30;99.90
24226;DHT22;51462;51.422;5.514;2022-12-07T01:15:44;4.30;99.90
24226;DHT22;51462;51.422;5.514;2022-12-07T01:18:10;4.20;99.90
24226;DHT22;51462;51.422;5.514;2022-12-07T01:20:36;4.20;99.90
24226;DHT22;51462;51.422;5.514;2022-12-07T01:23:02;4.20;99.90
24226;DHT22;51462;51.422;5.514;2022-12-07T01:25:28;4.20;99.90
24226;DHT22;51462;51.422;5.514;2022-12-07T01:27:54;4.20;99.90
24226;DHT22;51462;51.422;5.514;2022-12-07T01:30:19;4.20;99.90
24226;DHT22;51462;51.422;5.514;2022-12-07T01:32:45;4.20;99.90
24226;DHT22;51462;51.422;5.514;2022-12-07T01:35:11;4.20;99.90
24226;DHT22;51462;51.422;5.514;2022-12-07T01:37:37;4.10;99.90
24226;DHT22;51462;51.422;5.514;2022-12-07T01:40:05;4.10;99.90
24226;DHT22;51462;51.422;5.514;2022-12-07T01:42:31;4.20;99.90
24226;DHT22;51462;51.422;5.514;2022-12-07T01:47:50;4.20;99.90
24226;DHT22;51462;51.422;5.514;2022-12-07T01:50:18;4.20;99.90
24226;DHT22;51462;51.422;5.514;2022-12-07T01:52:45;4.20;99.90
24226;DHT22;51462;51.422;5.514;2022-12-07T01:55:15;4.10;99.90
24226;DHT22;51462;51.422;5.514;2022-12-07T01:57:45;4.20;99.90
24226;DHT22;51462;51.422;5.514;2022-12-07T02:00:13;4.20;99.90
24226;DHT22;51462;51.422;5.514;2022-12-07T02:02:47;4.20;99.90
24226;DHT22;51462;51.422;5.514;2022-12-07T02:05:14;4.20;99.90
24226;DHT22;51462;51.422;5.514;2022-12-07T02:07:40;4.30;99.90
24226;DHT22;51462;51.422;5.514;2022-12-07T02:10:32;4.30;99.90
24226;DHT22;51462;51.422;5.514;2022-12-07T02:15:45;4.30;99.90
24226;DHT22;51462;51.422;5.514;2022-12-07T02:18:38;4.20;99.90
24226;DHT22;51462;51.422;5.514;2022-12-07T02:21:11;4.30;99.90
24226;DHT22;51462;51.422;5.514;2022-12-07T02:29:05;4.40;99.90
24226;DHT22;51462;51.422;5.514;2022-12-07T02:31:37;4.40;99.90
24226;DHT22;51462;51.422;5.514;2022-12-07T02:36:43;4.40;99.90
24226;DHT22;51462;51.422;5.514;2022-12-07T02:39:17;4.40;99.90
24226;DHT22;51462;51.422;5.514;2022-12-07T02:41:47;4.40;99.90
24226;DHT22;51462;51.422;5.514;2022-12-07T02:44:17;4.40;99.90
24226;DHT22;51462;51.422;5.514;2022-12-07T02:46:55;4.40;99.90
24226;DHT22;51462;51.422;5.514;2022-12-07T02:49:23;4.30;99.90
24226;DHT22;51462;51.422;5.514;2022-12-07T02:51:49;4.20;99.90
24226;DHT22;51462;51.422;5.514;2022-12-07T02:54:17;4.40;99.90
24226;DHT22;51462;51.422;5.514;2022-12-07T03:04:43;4.20;99.90
24226;DHT22;51462;51.422;5.514;2022-12-07T03:09:52;4.10;99.90
24226;DHT22;51462;51.422;5.514;2022-12-07T03:12:27;4.20;99.90
24226;DHT22;51462;51.422;5.514;2022-12-07T03:15:14;4.20;99.90
24226;DHT22;51462;51.422;5.514;2022-12-07T03:17:43;4.20;99.90
24226;DHT22;51462;51.422;5.514;2022-12-07T03:20:13;4.10;99.90
24226;DHT22;51462;51.422;5.514;2022-12-07T03:22:41;4.10;99.90
24226;DHT22;51462;51.422;5.514;2022-12-07T03:25:10;4.10;99.90
24226;DHT22;51462;51.422;5.514;2022-12-07T03:27:41;4.10;99.90
24226;DHT22;51462;51.422;5.514;2022-12-07T03:30:12;4.10;99.90
24226;DHT22;51462;51.422;5.514;2022-12-07T03:32:45;4.20;99.90
24226;DHT22;51462;51.422;5.514;2022-12-07T03:35:35;4.20;99.90
24226;DHT22;51462;51.422;5.514;2022-12-07T03:38:08;4.20;99.90
24226;DHT22;51462;51.422;5.514;2022-12-07T03:43:12;4.20;99.90
24226;DHT22;51462;51.422;5.514;2022-12-07T03:45:43;4.20;99.90
24226;DHT22;51462;51.422;5.514;2022-12-07T03:48:33;4.20;99.90
24226;DHT22;51462;51.422;5.514;2022-12-07T03:51:22;4.20;99.90
24226;DHT22;51462;51.422;5.514;2022-12-07T03:53:59;4.20;99.90
24226;DHT22;51462;51.422;5.514;2022-12-07T03:56:27;4.20;99.90
24226;DHT22;51462;51.422;5.514;2022-12-07T03:58:54;4.20;99.90
24226;DHT22;51462;51.422;5.514;2022-12-07T04:01:19;4.20;99.90
24226;DHT22;51462;51.422;5.514;2022-12-07T04:03:45;4.20;99.90
24226;DHT22;51462;51.422;5.514;2022-12-07T04:06:11;4.20;99.90
24226;DHT22;51462;51.422;5.514;2022-12-07T04:08:37;4.20;99.90
24226;DHT22;51462;51.422;5.514;2022-12-07T04:11:02;4.20;99.90
24226;DHT22;51462;51.422;5.514;2022-12-07T04:13:28;4.20;99.90
24226;DHT22;51462;51.422;5.514;2022-12-07T04:15:53;4.30;99.90
24226;DHT22;51462;51.422;5.514;2022-12-07T04:18:19;4.30;99.90
24226;DHT22;51462;51.422;5.514;2022-12-07T04:20:45;4.30;99.90
24226;DHT22;51462;51.422;5.514;2022-12-07T04:23:11;4.30;99.90
24226;DHT22;51462;51.422;5.514;2022-12-07T04:25:37;4.30;99.90
24226;DHT22;51462;51.422;5.514;2022-12-07T04:28:02;4.30;99.90
24226;DHT22;51462;51.422;5.514;2022-12-07T04:30:28;4.30;99.90
24226;DHT22;51462;51.422;5.514;2022-12-07T04:32:53;4.30;99.90
24226;DHT22;51462;51.422;5.514;2022-12-07T04:35:19;4.40;99.90
24226;DHT22;51462;51.422;5.514;2022-12-07T04:37:44;4.30;99.90
24226;DHT22;51462;51.422;5.514;2022-12-07T04:40:10;4.50;99.90
24226;DHT22;51462;51.422;5.514;2022-12-07T04:42:37;4.40;99.90
24226;DHT22;51462;51.422;5.514;2022-12-07T04:45:03;4.40;99.90
24226;DHT22;51462;51.422;5.514;2022-12-07T04:47:28;4.30;99.90
24226;DHT22;51462;51.422;5.514;2022-12-07T04:49:54;4.30;99.90
24226;DHT22;51462;51.422;5.514;2022-12-07T04:52:19;4.30;99.90
24226;DHT22;51462;51.422;5.514;2022-12-07T04:54:45;4.40;99.90
24226;DHT22;51462;51.422;5.514;2022-12-07T04:57:11;4.40;99.90
24226;DHT22;51462;51.422;5.514;2022-12-07T04:59:36;4.50;99.90
24226;DHT22;51462;51.422;5.514;2022-12-07T05:02:02;4.40;99.90
24226;DHT22;51462;51.422;5.514;2022-12-07T05:04:27;4.50;99.90
24226;DHT22;51462;51.422;5.514;2022-12-07T05:06:53;4.40;99.90
24226;DHT22;51462;51.422;5.514;2022-12-07T05:09:18;4.30;99.90
24226;DHT22;51462;51.422;5.514;2022-12-07T05:11:44;4.50;99.90
24226;DHT22;51462;51.422;5.514;2022-12-07T05:14:20;4.50;99.90
24226;DHT22;51462;51.422;5.514;2022-12-07T05:16:48;4.50;99.90
24226;DHT22;51462;51.422;5.514;2022-12-07T05:19:14;4.40;99.90
24226;DHT22;51462;51.422;5.514;2022-12-07T05:21:41;4.40;99.90
24226;DHT22;51462;51.422;5.514;2022-12-07T05:24:07;4.40;99.90
24226;DHT22;51462;51.422;5.514;2022-12-07T05:26:34;4.40;99.90
24226;DHT22;51462;51.422;5.514;2022-12-07T05:28:59;4.40;99.90
24226;DHT22;51462;51.422;5.514;2022-12-07T05:31:26;4.40;99.90
24226;DHT22;51462;51.422;5.514;2022-12-07T05:33:52;4.50;99.90
24226;DHT22;51462;51.422;5.514;2022-12-07T05:36:18;4.50;99.90
24226;DHT22;51462;51.422;5.514;2022-12-07T05:38:44;4.50;99.90
24226;DHT22;51462;51.422;5.514;2022-12-07T05:41:12;4.60;99.90
24226;DHT22;51462;51.422;5.514;2022-12-07T05:43:59;4.50;99.90
24226;DHT22;51462;51.422;5.514;2022-12-07T05:46:25;4.50;99.90
24226;DHT22;51462;51.422;5.514;2022-12-07T05:48:50;4.40;99.90
24226;DHT22;51462;51.422;5.514;2022-12-07T05:51:16;4.40;99.90
24226;DHT22;51462;51.422;5.514;2022-12-07T05:53:41;4.40;99.90
24226;DHT22;51462;51.422;5.514;2022-12-07T05:56:07;4.40;99.90
24226;DHT22;51462;51.422;5.514;2022-12-07T05:58:33;4.40;99.90
24226;DHT22;51462;51.422;5.514;2022-12-07T06:01:17;4.40;99.90
24226;DHT22;51462;51.422;5.514;2022-12-07T06:03:42;4.40;99.90
24226;DHT22;51462;51.422;5.514;2022-12-07T06:06:08;4.40;99.90
24226;DHT22;51462;51.422;5.514;2022-12-07T06:08:33;4.30;99.90
24226;DHT22;51462;51.422;5.514;2022-12-07T06:10:59;4.40;99.90
24226;DHT22;51462;51.422;5.514;2022-12-07T06:13:43;4.30;99.90
24226;DHT22;51462;51.422;5.514;2022-12-07T06:16:08;4.40;99.90
24226;DHT22;51462;51.422;5.514;2022-12-07T06:18:34;4.30;99.90
24226;DHT22;51462;51.422;5.514;2022-12-07T06:20:59;4.20;99.90
24226;DHT22;51462;51.422;5.514;2022-12-07T06:23:25;4.20;99.90
24226;DHT22;51462;51.422;5.514;2022-12-07T06:25:50;4.20;99.90
24226;DHT22;51462;51.422;5.514;2022-12-07T06:28:16;4.10;99.90
24226;DHT22;51462;51.422;5.514;2022-12-07T06:30:41;4.10;99.90
24226;DHT22;51462;51.422;5.514;2022-12-07T06:33:07;4.10;99.90
24226;DHT22;51462;51.422;5.514;2022-12-07T06:35:33;4.00;99.90
24226;DHT22;51462;51.422;5.514;2022-12-07T06:37:59;4.00;99.90
24226;DHT22;51462;51.422;5.514;2022-12-07T06:40:24;4.10;99.90
24226;DHT22;51462;51.422;5.514;2022-12-07T06:42:50;4.10;99.90
24226;DHT22;51462;51.422;5.514;2022-12-07T06:45:15;4.00;99.90
24226;DHT22;51462;51.422;5.514;2022-12-07T06:47:41;4.00;99.90
24226;DHT22;51462;51.422;5.514;2022-12-07T06:50:07;4.00;99.90
24226;DHT22;51462;51.422;5.514;2022-12-07T06:52:33;4.00;99.90
24226;DHT22;51462;51.422;5.514;2022-12-07T06:54:59;4.20;99.90
24226;DHT22;51462;51.422;5.514;2022-12-07T06:57:25;4.70;99.90
24226;DHT22;51462;51.422;5.514;2022-12-07T06:59:50;4.20;99.90
24226;DHT22;51462;51.422;5.514;2022-12-07T07:02:16;4.00;99.90
24226;DHT22;51462;51.422;5.514;2022-12-07T07:04:42;4.00;99.90
24226;DHT22;51462;51.422;5.514;2022-12-07T07:07:07;3.90;99.90
24226;DHT22;51462;51.422;5.514;2022-12-07T07:09:33;4.10;99.90
24226;DHT22;51462;51.422;5.514;2022-12-07T07:11:59;4.10;99.90
24226;DHT22;51462;51.422;5.514;2022-12-07T07:14:24;4.10;99.90
24226;DHT22;51462;51.422;5.514;2022-12-07T07:16:50;3.90;99.90
24226;DHT22;51462;51.422;5.514;2022-12-07T07:19:15;4.10;99.90
24226;DHT22;51462;51.422;5.514;2022-12-07T07:21:41;4.10;99.90
24226;DHT22;51462;51.422;5.514;2022-12-07T07:24:07;4.00;99.90
24226;DHT22;51462;51.422;5.514;2022-12-07T07:26:32;4.00;99.90
24226;DHT22;51462;51.422;5.514;2022-12-07T07:28:58;3.90;99.90
24226;DHT22;51462;51.422;5.514;2022-12-07T07:31:23;4.00;99.90
24226;DHT22;51462;51.422;5.514;2022-12-07T07:33:49;3.90;99.90
24226;DHT22;51462;51.422;5.514;2022-12-07T07:36:15;3.90;99.90
24226;DHT22;51462;51.422;5.514;2022-12-07T07:38:40;3.90;99.90
24226;DHT22;51462;51.422;5.514;2022-12-07T07:41:06;3.90;99.90
24226;DHT22;51462;51.422;5.514;2022-12-07T07:43:32;3.90;99.90
24226;DHT22;51462;51.422;5.514;2022-12-07T07:45:57;4.00;99.90
24226;DHT22;51462;51.422;5.514;2022-12-07T07:48:23;4.00;99.90
24226;DHT22;51462;51.422;5.514;2022-12-07T07:50:50;4.00;99.90
24226;DHT22;51462;51.422;5.514;2022-12-07T07:53:16;4.00;99.90
24226;DHT22;51462;51.422;5.514;2022-12-07T07:55:49;4.00;99.90
24226;DHT22;51462;51.422;5.514;2022-12-07T07:58:15;4.00;99.90
24226;DHT22;51462;51.422;5.514;2022-12-07T08:00:40;4.00;99.90
24226;DHT22;51462;51.422;5.514;2022-12-07T08:03:06;4.00;99.90
24226;DHT22;51462;51.422;5.514;2022-12-07T08:05:31;4.00;99.90
24226;DHT22;51462;51.422;5.514;2022-12-07T08:07:57;4.00;99.90
24226;DHT22;51462;51.422;5.514;2022-12-07T08:10:23;4.10;99.90
24226;DHT22;51462;51.422;5.514;2022-12-07T08:12:48;4.10;99.90
24226;DHT22;51462;51.422;5.514;2022-12-07T08:15:32;4.20;99.90
24226;DHT22;51462;51.422;5.514;2022-12-07T08:17:58;4.20;99.90
24226;DHT22;51462;51.422;5.514;2022-12-07T08:20:24;4.20;99.90
24226;DHT22;51462;51.422;5.514;2022-12-07T08:22:50;4.20;99.90
24226;DHT22;51462;51.422;5.514;2022-12-07T08:25:16;4.20;99.90
24226;DHT22;51462;51.422;5.514;2022-12-07T08:27:41;4.30;99.90
24226;DHT22;51462;51.422;5.514;2022-12-07T08:30:07;4.40;99.90
24226;DHT22;51462;51.422;5.514;2022-12-07T08:32:33;4.30;99.90
24226;DHT22;51462;51.422;5.514;2022-12-07T08:34:59;4.20;99.90
24226;DHT22;51462;51.422;5.514;2022-12-07T08:37:24;4.30;99.90
24226;DHT22;51462;51.422;5.514;2022-12-07T08:39:50;4.40;99.90
24226;DHT22;51462;51.422;5.514;2022-12-07T08:42:15;4.50;99.90
24226;DHT22;51462;51.422;5.514;2022-12-07T08:44:41;4.50;99.90
24226;DHT22;51462;51.422;5.514;2022-12-07T08:47:07;4.50;99.90
24226;DHT22;51462;51.422;5.514;2022-12-07T08:49:37;4.40;99.90
24226;DHT22;51462;51.422;5.514;2022-12-07T08:52:04;4.60;99.90
24226;DHT22;51462;51.422;5.514;2022-12-07T08:54:31;4.70;99.90
24226;DHT22;51462;51.422;5.514;2022-12-07T08:56:58;4.70;99.90
24226;DHT22;51462;51.422;5.514;2022-12-07T08:59:24;4.90;99.90
24226;DHT22;51462;51.422;5.514;2022-12-07T09:01:49;4.70;99.90
24226;DHT22;51462;51.422;5.514;2022-12-07T09:04:15;4.70;99.90
24226;DHT22;51462;51.422;5.514;2022-12-07T09:06:41;4.70;99.90
24226;DHT22;51462;51.422;5.514;2022-12-07T09:09:08;4.80;99.90
24226;DHT22;51462;51.422;5.514;2022-12-07T09:11:34;4.70;99.90
24226;DHT22;51462;51.422;5.514;2022-12-07T09:14:00;4.70;99.90
24226;DHT22;51462;51.422;5.514;2022-12-07T09:16:25;4.80;99.90
24226;DHT22;51462;51.422;5.514;2022-12-07T09:18:51;5.00;99.90
24226;DHT22;51462;51.422;5.514;2022-12-07T09:21:16;4.90;99.90
24226;DHT22;51462;51.422;5.514;2022-12-07T09:23:42;4.90;99.90
24226;DHT22;51462;51.422;5.514;2022-12-07T09:26:08;4.90;99.90
24226;DHT22;51462;51.422;5.514;2022-12-07T09:28:34;4.90;99.90
24226;DHT22;51462;51.422;5.514;2022-12-07T09:30:59;5.00;99.90
24226;DHT22;51462;51.422;5.514;2022-12-07T09:33:25;4.90;99.90
24226;DHT22;51462;51.422;5.514;2022-12-07T09:35:51;5.20;99.90
24226;DHT22;51462;51.422;5.514;2022-12-07T09:38:18;5.20;99.90
24226;DHT22;51462;51.422;5.514;2022-12-07T09:40:44;5.00;99.90
24226;DHT22;51462;51.422;5.514;2022-12-07T09:43:19;5.00;99.90
24226;DHT22;51462;51.422;5.514;2022-12-07T09:45:50;5.00;99.90
24226;DHT22;51462;51.422;5.514;2022-12-07T09:48:18;5.10;99.90
24226;DHT22;51462;51.422;5.514;2022-12-07T09:50:46;5.00;99.90
24226;DHT22;51462;51.422;5.514;2022-12-07T09:53:25;5.10;99.90
24226;DHT22;51462;51.422;5.514;2022-12-07T09:55:52;5.20;99.90
24226;DHT22;51462;51.422;5.514;2022-12-07T09:58:28;5.20;99.90
24226;DHT22;51462;51.422;5.514;2022-12-07T10:03:35;5.10;99.90
24226;DHT22;51462;51.422;5.514;2022-12-07T10:06:01;5.10;99.90
24226;DHT22;51462;51.422;5.514;2022-12-07T10:08:27;5.10;99.90
24226;DHT22;51462;51.422;5.514;2022-12-07T10:10:54;5.10;99.90
24226;DHT22;51462;51.422;5.514;2022-12-07T10:16:05;5.30;99.90
24226;DHT22;51462;51.422;5.514;2022-12-07T10:26:49;5.60;99.90
24226;DHT22;51462;51.422;5.514;2022-12-07T10:29:31;5.60;99.90
24226;DHT22;51462;51.422;5.514;2022-12-07T10:32:00;5.60;99.90
24226;DHT22;51462;51.422;5.514;2022-12-07T10:34:30;5.60;99.90
24226;DHT22;51462;51.422;5.514;2022-12-07T10:42:18;6.00;99.90
24226;DHT22;51462;51.422;5.514;2022-12-07T10:44:44;6.10;99.90
24226;DHT22;51462;51.422;5.514;2022-12-07T10:58:31;6.90;99.90
24226;DHT22;51462;51.422;5.514;2022-12-07T11:01:24;6.80;99.90
24226;DHT22;51462;51.422;5.514;2022-12-07T11:06:36;6.90;99.90
24226;DHT22;51462;51.422;5.514;2022-12-07T11:15:13;7.10;99.90
24226;DHT22;51462;51.422;5.514;2022-12-07T11:20:50;7.70;99.90
24226;DHT22;51462;51.422;5.514;2022-12-07T11:23:56;7.70;99.90
24226;DHT22;51462;51.422;5.514;2022-12-07T11:36:52;7.70;99.90
24226;DHT22;51462;51.422;5.514;2022-12-07T11:42:05;7.50;99.90
24226;DHT22;51462;51.422;5.514;2022-12-07T11:44:39;7.40;99.90
24226;DHT22;51462;51.422;5.514;2022-12-07T11:47:13;7.40;99.90
24226;DHT22;51462;51.422;5.514;2022-12-07T11:52:48;7.40;99.90
24226;DHT22;51462;51.422;5.514;2022-12-07T11:55:26;7.30;99.90
24226;DHT22;51462;51.422;5.514;2022-12-07T11:58:17;7.40;99.90
24226;DHT22;51462;51.422;5.514;2022-12-07T12:00:46;7.40;99.90
24226;DHT22;51462;51.422;5.514;2022-12-07T12:03:17;7.40;99.90
24226;DHT22;51462;51.422;5.514;2022-12-07T12:05:48;7.50;99.90
24226;DHT22;51462;51.422;5.514;2022-12-07T12:08:19;7.70;99.90
24226;DHT22;51462;51.422;5.514;2022-12-07T12:21:47;7.90;99.90
24226;DHT22;51462;51.422;5.514;2022-12-07T12:24:23;7.80;99.90
24226;DHT22;51462;51.422;5.514;2022-12-07T12:27:37;7.50;99.90
24226;DHT22;51462;51.422;5.514;2022-12-07T12:29:40;7.50;99.90
24226;DHT22;51462;51.422;5.514;2022-12-07T12:32:15;7.50;99.90
24226;DHT22;51462;51.422;5.514;2022-12-07T12:42:51;7.30;99.90
24226;DHT22;51462;51.422;5.514;2022-12-07T12:45:26;7.40;99.90
24226;DHT22;51462;51.422;5.514;2022-12-07T12:47:53;7.50;99.90
24226;DHT22;51462;51.422;5.514;2022-12-07T12:50:32;7.70;99.90
24226;DHT22;51462;51.422;5.514;2022-12-07T13:00:46;8.60;99.90
24226;DHT22;51462;51.422;5.514;2022-12-07T13:03:26;8.70;99.90
24226;DHT22;51462;51.422;5.514;2022-12-07T13:08:56;8.90;99.90
24226;DHT22;51462;51.422;5.514;2022-12-07T13:11:33;8.60;99.90
24226;DHT22;51462;51.422;5.514;2022-12-07T13:17:11;8.80;99.90
24226;DHT22;51462;51.422;5.514;2022-12-07T13:24:57;8.50;99.90
24226;DHT22;51462;51.422;5.514;2022-12-07T13:27:25;8.50;99.90
24226;DHT22;51462;51.422;5.514;2022-12-07T13:29:52;8.40;99.90
24226;DHT22;51462;51.422;5.514;2022-12-07T13:32:25;8.40;99.90
24226;DHT22;51462;51.422;5.514;2022-12-07T13:34:51;8.20;99.90
24226;DHT22;51462;51.422;5.514;2022-12-07T13:37:31;8.10;99.90
24226;DHT22;51462;51.422;5.514;2022-12-07T13:39:59;8.10;99.90
24226;DHT22;51462;51.422;5.514;2022-12-07T13:42:34;8.00;99.90
24226;DHT22;51462;51.422;5.514;2022-12-07T13:45:16;8.10;99.90
24226;DHT22;51462;51.422;5.514;2022-12-07T13:47:51;8.00;99.90
24226;DHT22;51462;51.422;5.514;2022-12-07T13:50:31;7.90;99.90
24226;DHT22;51462;51.422;5.514;2022-12-07T13:52:58;7.70;99.90
24226;DHT22;51462;51.422;5.514;2022-12-07T13:55:24;7.70;99.90
24226;DHT22;51462;51.422;5.514;2022-12-07T13:57:52;7.70;99.90
24226;DHT22;51462;51.422;5.514;2022-12-07T14:00:21;7.60;99.90
24226;DHT22;51462;51.422;5.514;2022-12-07T14:05:38;7.60;99.90
24226;DHT22;51462;51.422;5.514;2022-12-07T14:11:01;7.70;99.90
24226;DHT22;51462;51.422;5.514;2022-12-07T14:16:32;7.80;99.90
24226;DHT22;51462;51.422;5.514;2022-12-07T14:19:02;7.60;99.90
24226;DHT22;51462;51.422;5.514;2022-12-07T14:21:29;7.60;99.90
24226;DHT22;51462;51.422;5.514;2022-12-07T14:24:19;7.50;99.90
24226;DHT22;51462;51.422;5.514;2022-12-07T14:26:48;7.60;99.90
24226;DHT22;51462;51.422;5.514;2022-12-07T14:31:54;7.70;99.90
24226;DHT22;51462;51.422;5.514;2022-12-07T14:34:21;7.50;99.90
24226;DHT22;51462;51.422;5.514;2022-12-07T14:36:46;7.40;99.90
24226;DHT22;51462;51.422;5.514;2022-12-07T14:39:12;7.50;99.90
24226;DHT22;51462;51.422;5.514;2022-12-07T14:41:38;7.30;99.90
24226;DHT22;51462;51.422;5.514;2022-12-07T14:44:16;7.30;99.90
24226;DHT22;51462;51.422;5.514;2022-12-07T14:46:42;7.20;99.90
24226;DHT22;51462;51.422;5.514;2022-12-07T14:49:07;7.30;99.90
24226;DHT22;51462;51.422;5.514;2022-12-07T14:51:33;7.20;99.90
24226;DHT22;51462;51.422;5.514;2022-12-07T14:54:01;7.20;99.90
24226;DHT22;51462;51.422;5.514;2022-12-07T14:56:26;7.30;99.90
24226;DHT22;51462;51.422;5.514;2022-12-07T14:58:53;7.30;99.90
24226;DHT22;51462;51.422;5.514;2022-12-07T15:01:18;7.10;99.90
24226;DHT22;51462;51.422;5.514;2022-12-07T15:03:44;7.10;99.90
24226;DHT22;51462;51.422;5.514;2022-12-07T15:06:14;7.10;99.90
24226;DHT22;51462;51.422;5.514;2022-12-07T15:08:39;7.20;99.90
24226;DHT22;51462;51.422;5.514;2022-12-07T15:11:05;7.10;99.90
24226;DHT22;51462;51.422;5.514;2022-12-07T15:13:31;7.10;99.90
24226;DHT22;51462;51.422;5.514;2022-12-07T15:16:19;7.20;99.90
24226;DHT22;51462;51.422;5.514;2022-12-07T15:18:45;7.00;99.90
24226;DHT22;51462;51.422;5.514;2022-12-07T15:21:13;7.10;99.90
24226;DHT22;51462;51.422;5.514;2022-12-07T15:23:39;7.20;99.90
24226;DHT22;51462;51.422;5.514;2022-12-07T15:26:05;6.70;99.90
24226;DHT22;51462;51.422;5.514;2022-12-07T15:28:30;6.90;99.90
24226;DHT22;51462;51.422;5.514;2022-12-07T15:30:56;6.80;99.90
24226;DHT22;51462;51.422;5.514;2022-12-07T15:33:21;6.80;99.90
24226;DHT22;51462;51.422;5.514;2022-12-07T15:35:47;6.60;99.90
24226;DHT22;51462;51.422;5.514;2022-12-07T15:38:12;6.70;99.90
24226;DHT22;51462;51.422;5.514;2022-12-07T15:40:38;6.50;99.90
24226;DHT22;51462;51.422;5.514;2022-12-07T15:43:04;6.40;99.90
24226;DHT22;51462;51.422;5.514;2022-12-07T15:45:30;6.50;99.90
24226;DHT22;51462;51.422;5.514;2022-12-07T15:47:55;6.60;99.90
24226;DHT22;51462;51.422;5.514;2022-12-07T15:50:22;6.50;99.90
24226;DHT22;51462;51.422;5.514;2022-12-07T15:52:48;6.70;99.90
24226;DHT22;51462;51.422;5.514;2022-12-07T15:55:14;6.30;99.90
24226;DHT22;51462;51.422;5.514;2022-12-07T15:57:39;6.20;99.90
24226;DHT22;51462;51.422;5.514;2022-12-07T16:00:07;6.20;99.90
24226;DHT22;51462;51.422;5.514;2022-12-07T16:02:37;6.20;99.90
24226;DHT22;51462;51.422;5.514;2022-12-07T16:05:03;6.30;99.90
24226;DHT22;51462;51.422;5.514;2022-12-07T16:07:28;6.50;99.90
24226;DHT22;51462;51.422;5.514;2022-12-07T16:09:54;6.30;99.90
24226;DHT22;51462;51.422;5.514;2022-12-07T16:12:20;6.20;99.90
24226;DHT22;51462;51.422;5.514;2022-12-07T16:14:45;6.20;99.90
24226;DHT22;51462;51.422;5.514;2022-12-07T16:17:11;6.20;99.90
24226;DHT22;51462;51.422;5.514;2022-12-07T16:19:38;6.20;99.90
24226;DHT22;51462;51.422;5.514;2022-12-07T16:22:04;6.20;99.90
24226;DHT22;51462;51.422;5.514;2022-12-07T16:24:31;6.20;99.90
24226;DHT22;51462;51.422;5.514;2022-12-07T16:26:56;6.20;99.90
24226;DHT22;51462;51.422;5.514;2022-12-07T16:29:23;6.20;99.90
24226;DHT22;51462;51.422;5.514;2022-12-07T16:31:49;6.20;99.90
24226;DHT22;51462;51.422;5.514;2022-12-07T16:34:15;6.30;99.90
24226;DHT22;51462;51.422;5.514;2022-12-07T16:36:41;6.20;99.90
24226;DHT22;51462;51.422;5.514;2022-12-07T16:39:07;6.30;99.90
24226;DHT22;51462;51.422;5.514;2022-12-07T16:41:32;6.10;99.90
24226;DHT22;51462;51.422;5.514;2022-12-07T16:44:03;6.10;99.90
24226;DHT22;51462;51.422;5.514;2022-12-07T16:46:29;6.10;99.90
24226;DHT22;51462;51.422;5.514;2022-12-07T16:48:56;6.10;99.90
24226;DHT22;51462;51.422;5.514;2022-12-07T16:51:21;6.10;99.90
24226;DHT22;51462;51.422;5.514;2022-12-07T16:53:47;5.90;99.90
24226;DHT22;51462;51.422;5.514;2022-12-07T16:56:14;6.10;99.90
24226;DHT22;51462;51.422;5.514;2022-12-07T16:58:43;6.00;99.90
24226;DHT22;51462;51.422;5.514;2022-12-07T17:01:18;6.00;99.90
24226;DHT22;51462;51.422;5.514;2022-12-07T17:03:44;5.80;99.90
24226;DHT22;51462;51.422;5.514;2022-12-07T17:06:22;5.80;99.90
24226;DHT22;51462;51.422;5.514;2022-12-07T17:08:48;5.80;99.90
24226;DHT22;51462;51.422;5.514;2022-12-07T17:11:23;6.00;99.90
24226;DHT22;51462;51.422;5.514;2022-12-07T17:13:50;6.00;99.90
24226;DHT22;51462;51.422;5.514;2022-12-07T17:16:34;6.00;99.90
24226;DHT22;51462;51.422;5.514;2022-12-07T17:19:04;5.90;99.90
24226;DHT22;51462;51.422;5.514;2022-12-07T17:21:31;5.80;99.90
24226;DHT22;51462;51.422;5.514;2022-12-07T17:23:59;5.80;99.90
24226;DHT22;51462;51.422;5.514;2022-12-07T17:26:25;5.90;99.90
24226;DHT22;51462;51.422;5.514;2022-12-07T17:28:51;5.80;99.90
24226;DHT22;51462;51.422;5.514;2022-12-07T17:31:18;5.70;99.90
24226;DHT22;51462;51.422;5.514;2022-12-07T17:33:44;5.80;99.90
24226;DHT22;51462;51.422;5.514;2022-12-07T17:36:12;5.80;99.90
24226;DHT22;51462;51.422;5.514;2022-12-07T17:38:39;5.80;99.90
24226;DHT22;51462;51.422;5.514;2022-12-07T17:41:12;5.90;99.90
24226;DHT22;51462;51.422;5.514;2022-12-07T17:43:38;5.90;99.90
24226;DHT22;51462;51.422;5.514;2022-12-07T17:46:10;5.70;99.90
24226;DHT22;51462;51.422;5.514;2022-12-07T17:48:36;5.70;99.90
24226;DHT22;51462;51.422;5.514;2022-12-07T17:51:02;5.80;99.90
24226;DHT22;51462;51.422;5.514;2022-12-07T17:53:50;5.80;99.90
24226;DHT22;51462;51.422;5.514;2022-12-07T17:56:16;5.60;99.90
24226;DHT22;51462;51.422;5.514;2022-12-07T17:58:42;5.70;99.90
24226;DHT22;51462;51.422;5.514;2022-12-07T18:01:09;5.70;99.90
24226;DHT22;51462;51.422;5.514;2022-12-07T18:03:35;5.50;99.90
24226;DHT22;51462;51.422;5.514;2022-12-07T18:06:01;5.50;99.90
24226;DHT22;51462;51.422;5.514;2022-12-07T18:08:26;5.60;99.90